sensor_id;sensor_type;location;lat;lon;timestamp;P1;durP1;ratioP1;P2;durP2;ratioP2
55601;SDS011;59921;51.332;12.410;2023-05-20T00:01:21;3.53;;;2.20;;
55601;SDS011;59921;51.332;12.410;2023-05-20T00:03:47;2.50;;;1.88;;
55601;SDS011;59921;51.332;12.410;2023-05-20T00:06:12;2.47;;;1.80;;
55601;SDS011;59921;51.332;12.410;2023-05-20T00:08:37;2.42;;;1.90;;
55601;SDS011;59921;51.332;12.410;2023-05-20T00:11:03;3.40;;;1.90;;
55601;SDS011;59921;51.332;12.410;2023-05-20T00:13:28;3.13;;;2.03;;
55601;SDS011;59921;51.332;12.410;2023-05-20T00:15:54;2.90;;;1.90;;
55601;SDS011;59921;51.332;12.410;2023-05-20T00:18:20;3.15;;;1.95;;
55601;SDS011;59921;51.332;12.410;2023-05-20T00:20:45;3.15;;;2.10;;
55601;SDS011;59921;51.332;12.410;2023-05-20T00:23:10;3.35;;;2.00;;
55601;SDS011;59921;51.332;12.410;2023-05-20T00:25:36;2.60;;;1.80;;
55601;SDS011;59921;51.332;12.410;2023-05-20T00:28:01;2.60;;;1.85;;
55601;SDS011;59921;51.332;12.410;2023-05-20T00:30:27;2.47;;;1.83;;
55601;SDS011;59921;51.332;12.410;2023-05-20T00:32:52;3.63;;;2.30;;
55601;SDS011;59921;51.332;12.410;2023-05-20T00:35:18;2.85;;;2.00;;
55601;SDS011;59921;51.332;12.410;2023-05-20T00:37:43;3.53;;;2.30;;
55601;SDS011;59921;51.332;12.410;2023-05-20T00:40:09;3.58;;;2.20;;
55601;SDS011;59921;51.332;12.410;2023-05-20T00:42:35;3.35;;;2.10;;
55601;SDS011;59921;51.332;12.410;2023-05-20T00:45:00;3.30;;;2.13;;
55601;SDS011;59921;51.332;12.410;2023-05-20T00:47:27;3.78;;;2.10;;
55601;SDS011;59921;51.332;12.410;2023-05-20T00:49:54;3.38;;;2.13;;
55601;SDS011;59921;51.332;12.410;2023-05-20T00:52:20;3.22;;;2.38;;
55601;SDS011;59921;51.332;12.410;2023-05-20T00:54:46;2.50;;;1.95;;
55601;SDS011;59921;51.332;12.410;2023-05-20T00:57:14;3.53;;;2.28;;
55601;SDS011;59921;51.332;12.410;2023-05-20T00:59:40;3.15;;;2.00;;
55601;SDS011;59921;51.332;12.410;2023-05-20T01:02:06;3.85;;;2.25;;
55601;SDS011;59921;51.332;12.410;2023-05-20T01:04:32;2.28;;;1.90;;
55601;SDS011;59921;51.332;12.410;2023-05-20T01:06:58;4.70;;;2.33;;
55601;SDS011;59921;51.332;12.410;2023-05-20T01:09:26;3.45;;;2.20;;
55601;SDS011;59921;51.332;12.410;2023-05-20T01:12:09;2.78;;;2.10;;
55601;SDS011;59921;51.332;12.410;2023-05-20T01:14:42;3.03;;;2.00;;
55601;SDS011;59921;51.332;12.410;2023-05-20T01:17:12;2.40;;;1.85;;
55601;SDS011;59921;51.332;12.410;2023-05-20T01:19:42;2.38;;;2.05;;
55601;SDS011;59921;51.332;12.410;2023-05-20T01:22:08;3.10;;;2.08;;
55601;SDS011;59921;51.332;12.410;2023-05-20T01:24:41;3.95;;;2.33;;
55601;SDS011;59921;51.332;12.410;2023-05-20T01:27:10;3.45;;;2.10;;
55601;SDS011;59921;51.332;12.410;2023-05-20T01:29:40;3.22;;;2.10;;
55601;SDS011;59921;51.332;12.410;2023-05-20T01:32:11;2.72;;;2.05;;
55601;SDS011;59921;51.332;12.410;2023-05-20T01:34:42;3.13;;;1.90;;
55601;SDS011;59921;51.332;12.410;2023-05-20T01:37:09;2.63;;;1.88;;
55601;SDS011;59921;51.332;12.410;2023-05-20T01:39:37;2.80;;;1.98;;
55601;SDS011;59921;51.332;12.410;2023-05-20T01:42:06;2.90;;;2.05;;
55601;SDS011;59921;51.332;12.410;2023-05-20T01:44:35;2.55;;;1.77;;
55601;SDS011;59921;51.332;12.410;2023-05-20T01:47:02;2.67;;;1.90;;
55601;SDS011;59921;51.332;12.410;2023-05-20T01:49:28;3.10;;;2.10;;
55601;SDS011;59921;51.332;12.410;2023-05-20T01:51:54;2.97;;;1.95;;
55601;SDS011;59921;51.332;12.410;2023-05-20T01:54:20;2.78;;;2.00;;
55601;SDS011;59921;51.332;12.410;2023-05-20T01:56:45;2.70;;;1.88;;
55601;SDS011;59921;51.332;12.410;2023-05-20T01:59:11;3.28;;;1.90;;
55601;SDS011;59921;51.332;12.410;2023-05-20T02:01:36;2.33;;;1.83;;
55601;SDS011;59921;51.332;12.410;2023-05-20T02:04:02;3.08;;;1.92;;
55601;SDS011;59921;51.332;12.410;2023-05-20T02:06:28;2.67;;;2.00;;
55601;SDS011;59921;51.332;12.410;2023-05-20T02:08:53;2.85;;;2.00;;
55601;SDS011;59921;51.332;12.410;2023-05-20T02:11:19;1.90;;;1.70;;
55601;SDS011;59921;51.332;12.410;2023-05-20T02:13:45;2.95;;;1.90;;
55601;SDS011;59921;51.332;12.410;2023-05-20T02:16:10;2.70;;;1.90;;
55601;SDS011;59921;51.332;12.410;2023-05-20T02:18:36;2.45;;;1.95;;
55601;SDS011;59921;51.332;12.410;2023-05-20T02:21:02;2.30;;;1.90;;
55601;SDS011;59921;51.332;12.410;2023-05-20T02:23:29;3.30;;;1.95;;
55601;SDS011;59921;51.332;12.410;2023-05-20T02:25:55;2.17;;;1.80;;
55601;SDS011;59921;51.332;12.410;2023-05-20T02:28:21;2.70;;;2.00;;
55601;SDS011;59921;51.332;12.410;2023-05-20T02:30:47;2.97;;;2.20;;
55601;SDS011;59921;51.332;12.410;2023-05-20T02:33:15;2.78;;;1.90;;
55601;SDS011;59921;51.332;12.410;2023-05-20T02:35:40;2.75;;;1.90;;
55601;SDS011;59921;51.332;12.410;2023-05-20T02:38:06;2.53;;;1.90;;
55601;SDS011;59921;51.332;12.410;2023-05-20T02:40:31;3.33;;;2.15;;
55601;SDS011;59921;51.332;12.410;2023-05-20T02:42:57;2.88;;;1.90;;
55601;SDS011;59921;51.332;12.410;2023-05-20T02:45:24;2.65;;;1.90;;
55601;SDS011;59921;51.332;12.410;2023-05-20T02:47:49;2.35;;;1.70;;
55601;SDS011;59921;51.332;12.410;2023-05-20T02:50:15;2.47;;;1.85;;
55601;SDS011;59921;51.332;12.410;2023-05-20T02:52:40;2.17;;;1.80;;
55601;SDS011;59921;51.332;12.410;2023-05-20T02:55:06;2.60;;;1.92;;
55601;SDS011;59921;51.332;12.410;2023-05-20T02:57:32;2.58;;;1.70;;
55601;SDS011;59921;51.332;12.410;2023-05-20T03:00:02;2.35;;;1.75;;
55601;SDS011;59921;51.332;12.410;2023-05-20T03:02:35;2.35;;;1.80;;
55601;SDS011;59921;51.332;12.410;2023-05-20T03:05:01;2.25;;;1.67;;
55601;SDS011;59921;51.332;12.410;2023-05-20T03:07:29;2.38;;;1.88;;
55601;SDS011;59921;51.332;12.410;2023-05-20T03:09:56;2.60;;;1.92;;
55601;SDS011;59921;51.332;12.410;2023-05-20T03:12:23;2.25;;;1.80;;
55601;SDS011;59921;51.332;12.410;2023-05-20T03:14:50;2.78;;;1.98;;
55601;SDS011;59921;51.332;12.410;2023-05-20T03:17:20;2.58;;;1.98;;
55601;SDS011;59921;51.332;12.410;2023-05-20T03:19:46;2.17;;;1.75;;
55601;SDS011;59921;51.332;12.410;2023-05-20T03:22:11;2.45;;;1.90;;
55601;SDS011;59921;51.332;12.410;2023-05-20T03:24:37;2.20;;;1.80;;
55601;SDS011;59921;51.332;12.410;2023-05-20T03:27:03;2.17;;;1.75;;
55601;SDS011;59921;51.332;12.410;2023-05-20T03:29:28;2.40;;;1.90;;
55601;SDS011;59921;51.332;12.410;2023-05-20T03:31:55;2.95;;;1.90;;
55601;SDS011;59921;51.332;12.410;2023-05-20T03:34:20;2.28;;;1.90;;
55601;SDS011;59921;51.332;12.410;2023-05-20T03:36:46;2.30;;;1.65;;
55601;SDS011;59921;51.332;12.410;2023-05-20T03:39:12;2.47;;;1.90;;
55601;SDS011;59921;51.332;12.410;2023-05-20T03:41:37;2.88;;;2.03;;
55601;SDS011;59921;51.332;12.410;2023-05-20T03:44:03;2.50;;;1.80;;
55601;SDS011;59921;51.332;12.410;2023-05-20T03:46:29;2.13;;;1.70;;
55601;SDS011;59921;51.332;12.410;2023-05-20T03:48:56;2.60;;;1.90;;
55601;SDS011;59921;51.332;12.410;2023-05-20T03:51:22;3.08;;;2.08;;
55601;SDS011;59921;51.332;12.410;2023-05-20T03:53:47;2.70;;;1.88;;
55601;SDS011;59921;51.332;12.410;2023-05-20T03:56:13;2.10;;;1.85;;
55601;SDS011;59921;51.332;12.410;2023-05-20T03:58:38;2.25;;;1.60;;
55601;SDS011;59921;51.332;12.410;2023-05-20T04:01:04;2.70;;;1.90;;
55601;SDS011;59921;51.332;12.410;2023-05-20T04:03:29;2.45;;;1.70;;
55601;SDS011;59921;51.332;12.410;2023-05-20T04:05:55;2.28;;;1.70;;
55601;SDS011;59921;51.332;12.410;2023-05-20T04:08:21;1.92;;;1.50;;
55601;SDS011;59921;51.332;12.410;2023-05-20T04:10:49;2.47;;;1.90;;
55601;SDS011;59921;51.332;12.410;2023-05-20T04:13:15;2.40;;;1.75;;
55601;SDS011;59921;51.332;12.410;2023-05-20T04:15:41;2.22;;;1.70;;
55601;SDS011;59921;51.332;12.410;2023-05-20T04:18:07;2.28;;;1.80;;
55601;SDS011;59921;51.332;12.410;2023-05-20T04:20:32;1.98;;;1.60;;
55601;SDS011;59921;51.332;12.410;2023-05-20T04:22:58;2.35;;;1.85;;
55601;SDS011;59921;51.332;12.410;2023-05-20T04:25:24;2.10;;;1.70;;
55601;SDS011;59921;51.332;12.410;2023-05-20T04:27:50;2.20;;;1.58;;
55601;SDS011;59921;51.332;12.410;2023-05-20T04:30:18;2.40;;;1.80;;
55601;SDS011;59921;51.332;12.410;2023-05-20T04:32:46;2.30;;;1.73;;
55601;SDS011;59921;51.332;12.410;2023-05-20T04:35:12;2.13;;;1.67;;
55601;SDS011;59921;51.332;12.410;2023-05-20T04:37:38;2.60;;;1.77;;
55601;SDS011;59921;51.332;12.410;2023-05-20T04:40:04;2.72;;;1.80;;
55601;SDS011;59921;51.332;12.410;2023-05-20T04:42:31;2.45;;;1.70;;
55601;SDS011;59921;51.332;12.410;2023-05-20T04:44:58;2.40;;;1.80;;
55601;SDS011;59921;51.332;12.410;2023-05-20T04:47:28;2.00;;;1.70;;
55601;SDS011;59921;51.332;12.410;2023-05-20T04:49:54;2.50;;;1.90;;
55601;SDS011;59921;51.332;12.410;2023-05-20T04:52:23;2.35;;;1.73;;
55601;SDS011;59921;51.332;12.410;2023-05-20T04:54:49;2.50;;;1.90;;
55601;SDS011;59921;51.332;12.410;2023-05-20T04:57:15;2.03;;;1.70;;
55601;SDS011;59921;51.332;12.410;2023-05-20T04:59:45;1.98;;;1.70;;
55601;SDS011;59921;51.332;12.410;2023-05-20T05:02:12;2.42;;;1.70;;
55601;SDS011;59921;51.332;12.410;2023-05-20T05:04:38;1.75;;;1.55;;
55601;SDS011;59921;51.332;12.410;2023-05-20T05:07:04;2.30;;;1.80;;
55601;SDS011;59921;51.332;12.410;2023-05-20T05:09:29;2.40;;;1.70;;
55601;SDS011;59921;51.332;12.410;2023-05-20T05:11:55;1.90;;;1.50;;
55601;SDS011;59921;51.332;12.410;2023-05-20T05:14:21;2.05;;;1.70;;
55601;SDS011;59921;51.332;12.410;2023-05-20T05:16:48;2.30;;;1.90;;
55601;SDS011;59921;51.332;12.410;2023-05-20T05:19:14;2.30;;;1.75;;
55601;SDS011;59921;51.332;12.410;2023-05-20T05:21:40;1.75;;;1.50;;
55601;SDS011;59921;51.332;12.410;2023-05-20T05:24:05;2.33;;;1.55;;
55601;SDS011;59921;51.332;12.410;2023-05-20T05:26:31;2.28;;;1.73;;
55601;SDS011;59921;51.332;12.410;2023-05-20T05:28:57;1.90;;;1.40;;
55601;SDS011;59921;51.332;12.410;2023-05-20T05:31:23;2.05;;;1.60;;
55601;SDS011;59921;51.332;12.410;2023-05-20T05:33:48;2.10;;;1.63;;
55601;SDS011;59921;51.332;12.410;2023-05-20T05:36:14;2.40;;;1.80;;
55601;SDS011;59921;51.332;12.410;2023-05-20T05:38:41;2.10;;;1.60;;
55601;SDS011;59921;51.332;12.410;2023-05-20T05:41:06;2.25;;;1.70;;
55601;SDS011;59921;51.332;12.410;2023-05-20T05:43:32;1.90;;;1.50;;
55601;SDS011;59921;51.332;12.410;2023-05-20T05:45:58;2.78;;;1.90;;
55601;SDS011;59921;51.332;12.410;2023-05-20T05:48:26;2.05;;;1.60;;
55601;SDS011;59921;51.332;12.410;2023-05-20T05:50:52;2.60;;;1.98;;
55601;SDS011;59921;51.332;12.410;2023-05-20T05:53:17;1.90;;;1.48;;
55601;SDS011;59921;51.332;12.410;2023-05-20T05:55:44;2.58;;;1.83;;
55601;SDS011;59921;51.332;12.410;2023-05-20T05:58:10;2.40;;;1.83;;
55601;SDS011;59921;51.332;12.410;2023-05-20T06:00:36;2.15;;;1.83;;
55601;SDS011;59921;51.332;12.410;2023-05-20T06:03:01;2.25;;;1.80;;
55601;SDS011;59921;51.332;12.410;2023-05-20T06:05:27;2.15;;;1.60;;
55601;SDS011;59921;51.332;12.410;2023-05-20T06:07:53;1.92;;;1.60;;
55601;SDS011;59921;51.332;12.410;2023-05-20T06:10:18;3.13;;;1.70;;
55601;SDS011;59921;51.332;12.410;2023-05-20T06:12:44;2.15;;;1.63;;
55601;SDS011;59921;51.332;12.410;2023-05-20T06:15:09;2.20;;;1.65;;
55601;SDS011;59921;51.332;12.410;2023-05-20T06:17:35;2.47;;;1.88;;
55601;SDS011;59921;51.332;12.410;2023-05-20T06:20:01;2.42;;;1.60;;
55601;SDS011;59921;51.332;12.410;2023-05-20T06:22:26;2.55;;;1.70;;
55601;SDS011;59921;51.332;12.410;2023-05-20T06:24:52;2.03;;;1.60;;
55601;SDS011;59921;51.332;12.410;2023-05-20T06:27:20;2.45;;;1.83;;
55601;SDS011;59921;51.332;12.410;2023-05-20T06:29:47;2.17;;;1.73;;
55601;SDS011;59921;51.332;12.410;2023-05-20T06:32:12;2.17;;;1.70;;
55601;SDS011;59921;51.332;12.410;2023-05-20T06:34:41;2.17;;;1.67;;
55601;SDS011;59921;51.332;12.410;2023-05-20T06:37:06;2.20;;;1.80;;
55601;SDS011;59921;51.332;12.410;2023-05-20T06:39:32;1.85;;;1.60;;
55601;SDS011;59921;51.332;12.410;2023-05-20T06:41:57;2.40;;;1.88;;
55601;SDS011;59921;51.332;12.410;2023-05-20T06:44:23;1.98;;;1.50;;
55601;SDS011;59921;51.332;12.410;2023-05-20T06:46:48;1.67;;;1.50;;
55601;SDS011;59921;51.332;12.410;2023-05-20T06:49:14;1.88;;;1.60;;
55601;SDS011;59921;51.332;12.410;2023-05-20T06:51:40;2.65;;;2.10;;
55601;SDS011;59921;51.332;12.410;2023-05-20T06:54:05;2.05;;;1.60;;
55601;SDS011;59921;51.332;12.410;2023-05-20T06:56:31;2.30;;;1.75;;
55601;SDS011;59921;51.332;12.410;2023-05-20T06:58:56;1.65;;;1.40;;
55601;SDS011;59921;51.332;12.410;2023-05-20T07:01:22;2.22;;;1.60;;
55601;SDS011;59921;51.332;12.410;2023-05-20T07:03:50;2.42;;;1.95;;
55601;SDS011;59921;51.332;12.410;2023-05-20T07:06:16;2.38;;;1.65;;
55601;SDS011;59921;51.332;12.410;2023-05-20T07:08:45;2.83;;;1.50;;
55601;SDS011;59921;51.332;12.410;2023-05-20T07:11:11;2.20;;;1.77;;
55601;SDS011;59921;51.332;12.410;2023-05-20T07:13:37;2.08;;;1.80;;
55601;SDS011;59921;51.332;12.410;2023-05-20T07:16:03;1.85;;;1.50;;
55601;SDS011;59921;51.332;12.410;2023-05-20T07:18:29;2.83;;;1.77;;
55601;SDS011;59921;51.332;12.410;2023-05-20T07:20:54;1.92;;;1.73;;
55601;SDS011;59921;51.332;12.410;2023-05-20T07:23:23;2.13;;;1.77;;
55601;SDS011;59921;51.332;12.410;2023-05-20T07:25:49;2.17;;;1.80;;
55601;SDS011;59921;51.332;12.410;2023-05-20T07:28:15;2.63;;;1.85;;
55601;SDS011;59921;51.332;12.410;2023-05-20T07:30:42;2.47;;;1.90;;
55601;SDS011;59921;51.332;12.410;2023-05-20T07:33:14;2.15;;;1.80;;
55601;SDS011;59921;51.332;12.410;2023-05-20T07:35:41;2.33;;;1.83;;
55601;SDS011;59921;51.332;12.410;2023-05-20T07:38:07;2.40;;;1.88;;
55601;SDS011;59921;51.332;12.410;2023-05-20T07:40:32;2.33;;;1.95;;
55601;SDS011;59921;51.332;12.410;2023-05-20T07:42:58;2.50;;;1.88;;
55601;SDS011;59921;51.332;12.410;2023-05-20T07:45:23;2.20;;;1.73;;
55601;SDS011;59921;51.332;12.410;2023-05-20T07:47:49;2.15;;;1.77;;
55601;SDS011;59921;51.332;12.410;2023-05-20T07:50:15;2.85;;;1.88;;
55601;SDS011;59921;51.332;12.410;2023-05-20T07:52:41;2.35;;;1.70;;
55601;SDS011;59921;51.332;12.410;2023-05-20T07:55:09;2.40;;;1.90;;
55601;SDS011;59921;51.332;12.410;2023-05-20T07:57:35;2.45;;;1.95;;
55601;SDS011;59921;51.332;12.410;2023-05-20T08:00:00;2.92;;;2.13;;
55601;SDS011;59921;51.332;12.410;2023-05-20T08:02:26;2.40;;;1.80;;
55601;SDS011;59921;51.332;12.410;2023-05-20T08:04:51;2.47;;;1.90;;
55601;SDS011;59921;51.332;12.410;2023-05-20T08:07:17;2.47;;;1.67;;
55601;SDS011;59921;51.332;12.410;2023-05-20T08:09:46;1.60;;;1.50;;
55601;SDS011;59921;51.332;12.410;2023-05-20T08:12:11;2.40;;;1.85;;
55601;SDS011;59921;51.332;12.410;2023-05-20T08:14:37;2.35;;;1.80;;
55601;SDS011;59921;51.332;12.410;2023-05-20T08:17:03;1.88;;;1.60;;
55601;SDS011;59921;51.332;12.410;2023-05-20T08:19:28;2.22;;;1.75;;
55601;SDS011;59921;51.332;12.410;2023-05-20T08:21:54;2.33;;;1.90;;
55601;SDS011;59921;51.332;12.410;2023-05-20T08:24:20;2.47;;;2.00;;
55601;SDS011;59921;51.332;12.410;2023-05-20T08:26:45;2.60;;;1.98;;
55601;SDS011;59921;51.332;12.410;2023-05-20T08:29:11;1.90;;;1.70;;
55601;SDS011;59921;51.332;12.410;2023-05-20T08:31:36;1.90;;;1.63;;
55601;SDS011;59921;51.332;12.410;2023-05-20T08:34:02;2.58;;;2.00;;
55601;SDS011;59921;51.332;12.410;2023-05-20T08:36:27;2.17;;;1.90;;
55601;SDS011;59921;51.332;12.410;2023-05-20T08:38:53;2.17;;;1.77;;
55601;SDS011;59921;51.332;12.410;2023-05-20T08:41:19;2.30;;;1.90;;
55601;SDS011;59921;51.332;12.410;2023-05-20T08:43:46;2.58;;;2.08;;
55601;SDS011;59921;51.332;12.410;2023-05-20T08:46:14;2.47;;;1.98;;
55601;SDS011;59921;51.332;12.410;2023-05-20T08:48:40;2.13;;;1.80;;
55601;SDS011;59921;51.332;12.410;2023-05-20T08:51:05;2.03;;;1.80;;
55601;SDS011;59921;51.332;12.410;2023-05-20T08:53:34;2.22;;;1.98;;
55601;SDS011;59921;51.332;12.410;2023-05-20T08:56:00;2.65;;;2.25;;
55601;SDS011;59921;51.332;12.410;2023-05-20T08:58:27;2.60;;;2.13;;
55601;SDS011;59921;51.332;12.410;2023-05-20T09:00:53;2.63;;;2.08;;
55601;SDS011;59921;51.332;12.410;2023-05-20T09:03:19;2.72;;;2.08;;
55601;SDS011;59921;51.332;12.410;2023-05-20T09:05:45;3.47;;;2.20;;
55601;SDS011;59921;51.332;12.410;2023-05-20T09:08:11;2.47;;;2.08;;
55601;SDS011;59921;51.332;12.410;2023-05-20T09:10:38;2.50;;;2.08;;
55601;SDS011;59921;51.332;12.410;2023-05-20T09:13:04;2.45;;;2.03;;
55601;SDS011;59921;51.332;12.410;2023-05-20T09:15:31;2.45;;;2.03;;
55601;SDS011;59921;51.332;12.410;2023-05-20T09:18:01;3.28;;;2.20;;
55601;SDS011;59921;51.332;12.410;2023-05-20T09:20:32;2.30;;;2.05;;
55601;SDS011;59921;51.332;12.410;2023-05-20T09:22:59;2.88;;;1.95;;
55601;SDS011;59921;51.332;12.410;2023-05-20T09:25:26;2.08;;;1.83;;
55601;SDS011;59921;51.332;12.410;2023-05-20T09:27:52;2.60;;;2.10;;
55601;SDS011;59921;51.332;12.410;2023-05-20T09:30:19;3.00;;;2.00;;
55601;SDS011;59921;51.332;12.410;2023-05-20T09:32:56;2.83;;;2.30;;
55601;SDS011;59921;51.332;12.410;2023-05-20T09:35:23;2.45;;;2.10;;
55601;SDS011;59921;51.332;12.410;2023-05-20T09:37:51;2.67;;;2.10;;
55601;SDS011;59921;51.332;12.410;2023-05-20T09:40:20;2.45;;;2.00;;
55601;SDS011;59921;51.332;12.410;2023-05-20T09:42:49;2.55;;;2.20;;
55601;SDS011;59921;51.332;12.410;2023-05-20T09:45:18;2.63;;;2.17;;
55601;SDS011;59921;51.332;12.410;2023-05-20T09:47:44;2.58;;;2.30;;
55601;SDS011;59921;51.332;12.410;2023-05-20T09:50:11;3.17;;;2.50;;
55601;SDS011;59921;51.332;12.410;2023-05-20T09:52:45;2.63;;;2.38;;
55601;SDS011;59921;51.332;12.410;2023-05-20T09:55:16;3.22;;;2.75;;
55601;SDS011;59921;51.332;12.410;2023-05-20T09:57:43;3.53;;;2.70;;
55601;SDS011;59921;51.332;12.410;2023-05-20T10:00:10;3.65;;;2.85;;
55601;SDS011;59921;51.332;12.410;2023-05-20T10:02:40;3.70;;;2.72;;
55601;SDS011;59921;51.332;12.410;2023-05-20T10:05:20;3.97;;;3.20;;
55601;SDS011;59921;51.332;12.410;2023-05-20T10:21:23;4.18;;;3.47;;
55601;SDS011;59921;51.332;12.410;2023-05-20T10:23:49;3.70;;;3.08;;
55601;SDS011;59921;51.332;12.410;2023-05-20T10:26:15;3.72;;;3.10;;
55601;SDS011;59921;51.332;12.410;2023-05-20T10:28:42;4.32;;;3.33;;
55601;SDS011;59921;51.332;12.410;2023-05-20T10:31:14;4.45;;;3.33;;
55601;SDS011;59921;51.332;12.410;2023-05-20T10:33:42;4.03;;;3.42;;
55601;SDS011;59921;51.332;12.410;2023-05-20T10:36:09;3.90;;;3.40;;
55601;SDS011;59921;51.332;12.410;2023-05-20T10:38:34;3.88;;;3.20;;
55601;SDS011;59921;51.332;12.410;2023-05-20T10:41:07;4.82;;;3.30;;
55601;SDS011;59921;51.332;12.410;2023-05-20T10:43:33;3.65;;;3.10;;
55601;SDS011;59921;51.332;12.410;2023-05-20T10:45:58;4.32;;;3.35;;
55601;SDS011;59921;51.332;12.410;2023-05-20T10:50:55;4.10;;;3.33;;
55601;SDS011;59921;51.332;12.410;2023-05-20T10:53:22;4.38;;;3.40;;
55601;SDS011;59921;51.332;12.410;2023-05-20T10:55:49;4.03;;;3.38;;
55601;SDS011;59921;51.332;12.410;2023-05-20T10:58:16;4.80;;;3.92;;
55601;SDS011;59921;51.332;12.410;2023-05-20T11:00:43;4.60;;;3.67;;
55601;SDS011;59921;51.332;12.410;2023-05-20T11:03:10;4.47;;;3.35;;
55601;SDS011;59921;51.332;12.410;2023-05-20T11:05:40;4.22;;;3.35;;
55601;SDS011;59921;51.332;12.410;2023-05-20T11:08:06;4.68;;;3.65;;
55601;SDS011;59921;51.332;12.410;2023-05-20T11:10:32;4.82;;;3.85;;
55601;SDS011;59921;51.332;12.410;2023-05-20T11:13:00;4.25;;;3.50;;
55601;SDS011;59921;51.332;12.410;2023-05-20T11:15:26;4.70;;;3.70;;
55601;SDS011;59921;51.332;12.410;2023-05-20T11:17:55;4.43;;;3.45;;
55601;SDS011;59921;51.332;12.410;2023-05-20T11:20:22;4.53;;;3.80;;
55601;SDS011;59921;51.332;12.410;2023-05-20T11:22:49;4.13;;;3.40;;
55601;SDS011;59921;51.332;12.410;2023-05-20T11:25:15;4.75;;;3.78;;
55601;SDS011;59921;51.332;12.410;2023-05-20T11:27:42;4.07;;;3.30;;
55601;SDS011;59921;51.332;12.410;2023-05-20T11:30:08;4.60;;;3.70;;
55601;SDS011;59921;51.332;12.410;2023-05-20T11:32:35;4.28;;;3.60;;
55601;SDS011;59921;51.332;12.410;2023-05-20T11:35:01;4.47;;;3.90;;
55601;SDS011;59921;51.332;12.410;2023-05-20T11:37:26;5.05;;;3.85;;
55601;SDS011;59921;51.332;12.410;2023-05-20T11:40:05;4.50;;;3.70;;
55601;SDS011;59921;51.332;12.410;2023-05-20T11:42:35;4.35;;;3.60;;
55601;SDS011;59921;51.332;12.410;2023-05-20T11:45:00;5.15;;;3.72;;
55601;SDS011;59921;51.332;12.410;2023-05-20T11:47:27;4.90;;;4.03;;
55601;SDS011;59921;51.332;12.410;2023-05-20T11:49:52;4.07;;;3.67;;
55601;SDS011;59921;51.332;12.410;2023-05-20T11:52:20;4.57;;;3.70;;
55601;SDS011;59921;51.332;12.410;2023-05-20T11:54:50;5.13;;;4.05;;
55601;SDS011;59921;51.332;12.410;2023-05-20T11:57:18;4.00;;;3.30;;
55601;SDS011;59921;51.332;12.410;2023-05-20T11:59:43;4.50;;;3.80;;
55601;SDS011;59921;51.332;12.410;2023-05-20T12:02:09;4.82;;;3.83;;
55601;SDS011;59921;51.332;12.410;2023-05-20T12:04:35;4.13;;;3.60;;
55601;SDS011;59921;51.332;12.410;2023-05-20T12:07:01;4.72;;;3.85;;
55601;SDS011;59921;51.332;12.410;2023-05-20T12:09:28;4.43;;;3.50;;
55601;SDS011;59921;51.332;12.410;2023-05-20T12:11:53;4.18;;;3.70;;
55601;SDS011;59921;51.332;12.410;2023-05-20T12:14:20;5.22;;;4.00;;
55601;SDS011;59921;51.332;12.410;2023-05-20T12:16:46;4.80;;;4.10;;
55601;SDS011;59921;51.332;12.410;2023-05-20T12:19:11;4.85;;;3.90;;
55601;SDS011;59921;51.332;12.410;2023-05-20T12:21:37;5.03;;;4.00;;
55601;SDS011;59921;51.332;12.410;2023-05-20T12:24:03;4.72;;;3.95;;
55601;SDS011;59921;51.332;12.410;2023-05-20T12:26:31;4.63;;;3.92;;
55601;SDS011;59921;51.332;12.410;2023-05-20T12:28:57;4.60;;;3.72;;
55601;SDS011;59921;51.332;12.410;2023-05-20T12:31:23;5.13;;;4.07;;
55601;SDS011;59921;51.332;12.410;2023-05-20T12:33:49;4.90;;;3.67;;
55601;SDS011;59921;51.332;12.410;2023-05-20T12:36:14;4.55;;;3.75;;
55601;SDS011;59921;51.332;12.410;2023-05-20T12:38:40;5.28;;;4.10;;
55601;SDS011;59921;51.332;12.410;2023-05-20T12:41:06;5.10;;;3.97;;
55601;SDS011;59921;51.332;12.410;2023-05-20T12:43:34;5.07;;;4.00;;
55601;SDS011;59921;51.332;12.410;2023-05-20T12:46:01;5.57;;;4.25;;
55601;SDS011;59921;51.332;12.410;2023-05-20T12:48:27;5.18;;;4.05;;
55601;SDS011;59921;51.332;12.410;2023-05-20T12:50:53;4.85;;;3.85;;
55601;SDS011;59921;51.332;12.410;2023-05-20T12:53:18;4.75;;;3.80;;
55601;SDS011;59921;51.332;12.410;2023-05-20T12:55:44;4.47;;;4.00;;
55601;SDS011;59921;51.332;12.410;2023-05-20T12:58:10;5.25;;;4.00;;
55601;SDS011;59921;51.332;12.410;2023-05-20T13:00:36;4.82;;;4.15;;
55601;SDS011;59921;51.332;12.410;2023-05-20T13:03:02;5.07;;;4.22;;
55601;SDS011;59921;51.332;12.410;2023-05-20T13:05:27;4.25;;;3.72;;
55601;SDS011;59921;51.332;12.410;2023-05-20T13:07:53;5.40;;;4.20;;
55601;SDS011;59921;51.332;12.410;2023-05-20T13:10:19;6.18;;;4.60;;
55601;SDS011;59921;51.332;12.410;2023-05-20T13:12:45;5.50;;;4.40;;
55601;SDS011;59921;51.332;12.410;2023-05-20T13:15:11;4.85;;;4.00;;
55601;SDS011;59921;51.332;12.410;2023-05-20T13:17:38;6.00;;;4.70;;
55601;SDS011;59921;51.332;12.410;2023-05-20T13:20:04;5.22;;;4.03;;
55601;SDS011;59921;51.332;12.410;2023-05-20T13:22:31;5.35;;;4.47;;
55601;SDS011;59921;51.332;12.410;2023-05-20T13:24:57;5.57;;;4.53;;
55601;SDS011;59921;51.332;12.410;2023-05-20T13:27:22;5.47;;;4.45;;
55601;SDS011;59921;51.332;12.410;2023-05-20T13:29:48;7.28;;;4.80;;
55601;SDS011;59921;51.332;12.410;2023-05-20T13:32:14;5.28;;;4.65;;
55601;SDS011;59921;51.332;12.410;2023-05-20T13:34:40;5.22;;;4.43;;
55601;SDS011;59921;51.332;12.410;2023-05-20T13:37:05;6.32;;;4.88;;
55601;SDS011;59921;51.332;12.410;2023-05-20T13:39:31;6.28;;;5.07;;
55601;SDS011;59921;51.332;12.410;2023-05-20T13:41:57;6.45;;;5.05;;
55601;SDS011;59921;51.332;12.410;2023-05-20T13:44:22;5.97;;;4.97;;
55601;SDS011;59921;51.332;12.410;2023-05-20T13:46:48;6.15;;;4.85;;
55601;SDS011;59921;51.332;12.410;2023-05-20T13:49:13;5.88;;;5.03;;
55601;SDS011;59921;51.332;12.410;2023-05-20T13:51:39;6.78;;;5.53;;
55601;SDS011;59921;51.332;12.410;2023-05-20T13:54:04;6.78;;;5.30;;
55601;SDS011;59921;51.332;12.410;2023-05-20T13:56:31;6.10;;;5.00;;
55601;SDS011;59921;51.332;12.410;2023-05-20T13:58:56;6.32;;;5.32;;
55601;SDS011;59921;51.332;12.410;2023-05-20T14:01:22;6.28;;;5.10;;
55601;SDS011;59921;51.332;12.410;2023-05-20T14:03:48;5.97;;;5.10;;
55601;SDS011;59921;51.332;12.410;2023-05-20T14:06:13;6.93;;;5.78;;
55601;SDS011;59921;51.332;12.410;2023-05-20T14:08:42;7.82;;;5.57;;
55601;SDS011;59921;51.332;12.410;2023-05-20T14:11:09;6.20;;;5.30;;
55601;SDS011;59921;51.332;12.410;2023-05-20T14:13:34;7.28;;;5.25;;
55601;SDS011;59921;51.332;12.410;2023-05-20T14:16:00;7.95;;;5.65;;
55601;SDS011;59921;51.332;12.410;2023-05-20T14:18:25;6.60;;;5.68;;
55601;SDS011;59921;51.332;12.410;2023-05-20T14:20:51;6.63;;;5.65;;
55601;SDS011;59921;51.332;12.410;2023-05-20T14:23:16;7.20;;;5.93;;
55601;SDS011;59921;51.332;12.410;2023-05-20T14:25:42;6.80;;;5.75;;
55601;SDS011;59921;51.332;12.410;2023-05-20T14:28:07;7.05;;;5.75;;
55601;SDS011;59921;51.332;12.410;2023-05-20T14:30:33;6.80;;;5.72;;
55601;SDS011;59921;51.332;12.410;2023-05-20T14:32:58;7.60;;;5.70;;
55601;SDS011;59921;51.332;12.410;2023-05-20T14:35:24;7.50;;;6.10;;
55601;SDS011;59921;51.332;12.410;2023-05-20T14:37:49;6.68;;;5.93;;
55601;SDS011;59921;51.332;12.410;2023-05-20T14:40:15;7.68;;;5.97;;
55601;SDS011;59921;51.332;12.410;2023-05-20T14:42:40;7.00;;;5.80;;
55601;SDS011;59921;51.332;12.410;2023-05-20T14:45:06;6.40;;;5.70;;